GTI59 KLAX-PHNL
Flight info
| Callsign | GTI59 |
|---|---|
| Flight time | N/A |
| Altitude | 40000 |
| Route | SUMMR2 DINTY DUETS R576 DUSAC/N0485F430 R576 DENNS MAGGI3 |
| Aircraft | B742/H-SDFHIRWXY/L |
Departure
| Time | 2026-05-01 15:05 |
|---|---|
| Airport | Los Angeles International Airport (KLAX) |
Arrival
| Time | N/A |
|---|---|
| Airport | Daniel K. Inouye International Airport (PHNL) |
| Time | Latitude | Longitude | Altitude | Speed | Heading |
|---|---|---|---|---|---|
| 2026-05-01 14:34 | 33.93469 | -118.38213 | 102 ft | 0 kts | 225° |
| 2026-05-01 14:57 | 33.93482 | -118.38197 | 103 ft | 2 kts | 225° |
| 2026-05-01 14:57 | 33.93493 | -118.38184 | 103 ft | 2 kts | 225° |
| 2026-05-01 14:58 | 33.93504 | -118.38171 | 103 ft | 2 kts | 225° |
| 2026-05-01 14:58 | 33.93513 | -118.38157 | 103 ft | 2 kts | 262° |
| 2026-05-01 14:58 | 33.93509 | -118.38140 | 103 ft | 2 kts | 311° |
| 2026-05-01 14:58 | 33.93497 | -118.38132 | 103 ft | 2 kts | 359° |
| 2026-05-01 14:59 | 33.93482 | -118.38133 | 103 ft | 2 kts | 360° |
| 2026-05-01 14:59 | 33.93467 | -118.38132 | 103 ft | 2 kts | 355° |
| 2026-05-01 14:59 | 33.93459 | -118.38131 | 103 ft | 0 kts | 355° |
| 2026-05-01 15:02 | 33.93460 | -118.38131 | 103 ft | 1 kts | 355° |
| 2026-05-01 15:02 | 33.93466 | -118.38131 | 103 ft | 4 kts | 358° |
| 2026-05-01 15:02 | 33.93586 | -118.38138 | 103 ft | 15 kts | 341° |
| 2026-05-01 15:02 | 33.93618 | -118.38219 | 103 ft | 11 kts | 272° |
| 2026-05-01 15:03 | 33.93621 | -118.38241 | 103 ft | 0 kts | 289° |
| 2026-05-01 15:04 | 33.93626 | -118.38248 | 103 ft | 4 kts | 308° |
| 2026-05-01 15:04 | 33.93690 | -118.38296 | 103 ft | 15 kts | 331° |
| 2026-05-01 15:04 | 33.93726 | -118.38397 | 104 ft | 12 kts | 261° |
| 2026-05-01 15:04 | 33.93721 | -118.38437 | 105 ft | 22 kts | 262° |
| 2026-05-01 15:05 | 33.93656 | -118.39052 | 107 ft | 122 kts | 263° |
| 2026-05-01 15:05 | 33.93527 | -118.40349 | 353 ft | 180 kts | 263° |
| 2026-05-01 15:05 | 33.93372 | -118.41849 | 1032 ft | 177 kts | 258° |
| 2026-05-01 15:05 | 33.93204 | -118.43286 | 1543 ft | 179 kts | 264° |
| 2026-05-01 15:06 | 33.93063 | -118.44805 | 2116 ft | 193 kts | 264° |
| 2026-05-01 15:06 | 33.92971 | -118.46458 | 2685 ft | 205 kts | 271° |
| 2026-05-01 15:06 | 33.92920 | -118.48221 | 3370 ft | 221 kts | 269° |
| 2026-05-01 15:06 | 33.92850 | -118.50111 | 4069 ft | 236 kts | 268° |
| 2026-05-01 15:07 | 33.92693 | -118.52149 | 4461 ft | 253 kts | 265° |
| 2026-05-01 15:07 | 33.92508 | -118.54298 | 4801 ft | 265 kts | 265° |
| 2026-05-01 15:07 | 33.92319 | -118.56526 | 4942 ft | 268 kts | 265° |
| 2026-05-01 15:07 | 33.92131 | -118.58776 | 4977 ft | 269 kts | 265° |
| 2026-05-01 15:08 | 33.91946 | -118.61002 | 4983 ft | 269 kts | 265° |
| 2026-05-01 15:08 | 33.91833 | -118.63236 | 4988 ft | 267 kts | 277° |
| 2026-05-01 15:08 | 33.92305 | -118.65420 | 5022 ft | 267 kts | 289° |
| 2026-05-01 15:08 | 33.92887 | -118.67545 | 5030 ft | 270 kts | 289° |
| 2026-05-01 15:09 | 33.93465 | -118.69654 | 5243 ft | 265 kts | 289° |
| 2026-05-01 15:09 | 33.94048 | -118.71781 | 5512 ft | 268 kts | 289° |
| 2026-05-01 15:09 | 33.94636 | -118.73920 | 5782 ft | 270 kts | 288° |
| 2026-05-01 15:09 | 33.95223 | -118.76057 | 6063 ft | 271 kts | 288° |
| 2026-05-01 15:10 | 33.95820 | -118.78228 | 6566 ft | 271 kts | 288° |
| 2026-05-01 15:10 | 33.96657 | -118.82701 | 7809 ft | 284 kts | 266° |
| 2026-05-01 15:10 | 33.96417 | -118.85072 | 8431 ft | 288 kts | 262° |
| 2026-05-01 15:11 | 33.96112 | -118.87476 | 9039 ft | 292 kts | 261° |
| 2026-05-01 15:11 | 33.95475 | -118.92326 | 10269 ft | 298 kts | 262° |
| 2026-05-01 15:11 | 33.95137 | -118.94785 | 10869 ft | 299 kts | 262° |
| 2026-05-01 15:12 | 33.94784 | -118.97236 | 11466 ft | 301 kts | 262° |